Time;durP1;ratioP1;P1;durP2;ratioP2;P2;SDS_P1;SDS_P2;PMS_P1;PMS_P2;Temp;Humidity;BMP_temperature;BMP_pressure;BME280_temperature;BME280_humidity;BME280_pressure;Samples;Min_cycle;Max_cycle;Signal;HPM_P1;HPM_P2
2023/02/22 10:09:06;;;;;;;;;;;;;;;18.87;35.29;99537.25;5871969;22;1678;-70
2023/02/22 10:14:50;;;;;;;;;;;;;;;18.77;35.09;99539.22;5075450;28;699;-72
2023/02/22 10:20:39;;;;;;;;;;;;;;;19.42;35.57;99524.44;5074731;28;636;-76
2023/02/22 10:50:29;;;;;;;;;;;;;;;19.07;34.72;99497.56;5053147;28;718;-75
2023/02/22 10:52:56;;;;;;;;;;;;;;;19.43;34.31;99503.56;5052774;28;908;-76
2023/02/22 10:55:22;;;;;;;;;;;;;;;18.95;34.46;99493.69;5052606;28;889;-73
2023/02/22 10:57:50;;;;;;;;;;;;;;;18.15;36.27;99501.00;5034364;28;1371;-74
2023/02/22 11:00:51;;;;;;;;;;;;;;;18.49;35.86;99502.03;5051984;28;803;-73
2023/02/22 11:03:22;;;;;;;;;;;;;;;18.06;36.24;99501.00;5052370;28;830;-73
2023/02/22 11:08:34;;;;;;;;;;;;;;;17.75;36.54;99493.41;5051949;28;1203;-73
2023/02/22 11:11:05;;;;;;;;;;;;;;;17.90;37.07;99476.09;5051855;28;1933;-72
2023/02/22 11:13:33;;;;;;;;;;;;;;;18.14;36.13;99479.13;5051848;28;842;-73
2023/02/22 11:16:02;;;;;;;;;;;;;;;18.11;36.33;99497.59;5051790;28;818;-73
2023/02/22 11:21:43;;;;;;;;;;;;;;;19.07;35.74;99489.16;5052108;28;726;-75
2023/02/22 11:24:12;;;;;;;;;;;;;;;19.29;35.05;99483.38;5051936;28;838;-75
2023/02/22 11:27:05;;;;;;;;;;;;;;;19.56;34.16;99484.53;5051762;28;818;-74
2023/02/22 11:32:23;;;;;;;;;;;;;;;19.43;34.13;99483.97;5051637;28;1906;-75
2023/02/22 11:34:51;;;;;;;;;;;;;;;19.65;33.67;99480.91;5033642;28;1144;-73
2023/02/22 11:49:16;;;;;;;;;;;;;;;19.75;33.57;99488.06;4951483;29;666;-72
2023/02/22 11:51:46;;;;;;;;;;;;;;;19.57;33.37;99474.88;4951636;29;1887;-70
2023/02/22 12:00:26;;;;;;;;;;;;;;;20.04;32.75;99464.28;4951798;29;634;-74
2023/02/22 12:06:10;;;;;;;;;;;;;;;19.75;33.06;99458.00;4951283;29;692;-74
2023/02/22 12:11:57;;;;;;;;;;;;;;;20.00;33.19;99461.63;4944123;29;1886;-72
2023/02/22 12:14:42;;;;;;;;;;;;;;;20.12;32.76;99457.03;4951303;29;868;-73
2023/02/22 12:17:22;;;;;;;;;;;;;;;20.46;32.45;99458.53;4951370;29;922;-73
2023/02/22 12:20:05;;;;;;;;;;;;;;;20.41;32.52;99456.38;4955103;29;870;-71
2023/02/22 12:23:05;;;;;;;;;;;;;;;20.41;32.56;99453.56;4955212;28;1384;-72
2023/02/22 12:28:58;;;;;;;;;;;;;;;20.52;32.11;99453.03;4972909;28;1164;-72
2023/02/22 12:31:47;;;;;;;;;;;;;;;20.55;32.28;99461.28;5013137;28;1914;-73
2023/02/22 12:40:34;;;;;;;;;;;;;;;20.72;32.38;99456.03;4973816;28;1275;-73
2023/02/22 12:46:33;;;;;;;;;;;;;;;20.61;32.47;99458.59;5007345;28;1064;-72
2023/02/22 12:49:06;;;;;;;;;;;;;;;20.75;31.98;99446.63;5012949;28;839;-71
2023/02/22 12:51:42;;;;;;;;;;;;;;;20.77;31.86;99435.69;5012698;28;1937;-71
2023/02/22 12:54:12;;;;;;;;;;;;;;;20.59;31.73;99449.91;5012706;28;818;-71
2023/02/22 12:57:08;;;;;;;;;;;;;;;;;;;;;
2023/02/22 12:59:45;;;;;;;;;;;;;;;20.53;31.86;99452.56;5032857;28;1183;-70
2023/02/22 13:05:23;;;;;;;;;;;;;;;20.53;32.63;99449.75;5010865;28;1091;-72
2023/02/22 13:07:49;;;;;;;;;;;;;;;20.56;32.28;99451.59;5034187;28;854;-73
2023/02/22 13:10:34;;;;;;;;;;;;;;;20.79;31.73;99449.25;5034118;28;826;-73
2023/02/22 13:25:51;;;;;;;;;;;;;;;;;;;;;
2023/02/22 13:46:02;;;;;;;;;;;;;;;21.13;31.21;99455.50;4975023;28;630;-75
2023/02/22 13:52:02;;;;;;;;;;;;;;;;;;;;;
2023/02/22 14:22:44;;;;;;;;;;;;;;;19.18;35.10;99500.66;4878620;29;1940;-76
2023/02/22 14:28:37;;;;;;;;;;;;;;;17.13;41.27;99510.91;4871264;29;1294;-75
2023/02/22 14:31:11;;;;;;;;;;;;;;;16.52;42.90;99521.38;4878659;29;927;-76
2023/02/22 14:33:56;;;;;;;;;;;;;;;16.18;44.16;99521.34;4894649;28;1075;-74
2023/02/22 14:36:26;;;;;;;;;;;;;;;15.75;45.68;99520.66;4956918;28;1070;-74
2023/02/22 14:38:57;;;;;;;;;;;;;;;15.57;46.15;99523.94;4974478;28;882;-73
2023/02/22 14:41:26;;;;;;;;;;;;;;;15.56;46.35;99527.97;4951609;28;1886;-73
2023/02/22 14:43:55;;;;;;;;;;;;;;;15.38;47.16;99525.69;4954733;29;796;-72
2023/02/22 14:46:23;;;;;;;;;;;;;;;15.17;48.06;99524.31;4954369;29;808;-72
2023/02/22 14:48:55;;;;;;;;;;;;;;;15.10;48.27;99539.19;4954458;29;867;-73
2023/02/22 14:51:29;;;;;;;;;;;;;;;14.98;48.61;99533.56;4954660;29;870;-73
2023/02/22 14:54:05;;;;;;;;;;;;;;;14.82;48.74;99539.97;4954574;29;961;-73
2023/02/22 14:56:40;;;;;;;;;;;;;;;14.58;49.56;99548.53;4954340;29;800;-73
2023/02/22 14:59:09;;;;;;;;;;;;;;;14.42;49.49;99552.09;4954265;29;867;-73
2023/02/22 15:01:38;;;;;;;;;;;;;;;14.64;49.96;99546.78;4954174;29;1967;-72
2023/02/22 15:04:17;;;;;;;;;;;;;;;15.14;48.85;99539.09;4954159;29;870;-73
2023/02/22 15:06:45;;;;;;;;;;;;;;;15.58;47.74;99542.22;4954461;29;807;-73
2023/02/22 15:09:13;;;;;;;;;;;;;;;15.86;47.22;99543.41;4954085;29;815;-73
2023/02/22 15:11:44;;;;;;;;;;;;;;;15.93;46.97;99547.97;4954055;29;812;-72
2023/02/22 15:14:16;;;;;;;;;;;;;;;15.92;47.00;99554.78;4954025;29;854;-72
2023/02/22 15:16:46;;;;;;;;;;;;;;;15.95;46.87;99550.31;4954089;29;812;-72
2023/02/22 15:19:24;;;;;;;;;;;;;;;15.65;47.34;99567.09;4953876;29;780;-73
2023/02/22 15:21:53;;;;;;;;;;;;;;;14.99;48.89;99565.78;4953934;29;1948;-72
2023/02/22 15:24:21;;;;;;;;;;;;;;;14.33;50.56;99571.34;4953933;29;800;-71
2023/02/22 15:26:48;;;;;;;;;;;;;;;13.88;51.76;99570.00;4953695;29;820;-72
2023/02/22 15:29:17;;;;;;;;;;;;;;;13.60;52.67;99570.63;4936527;29;1158;-72
2023/02/22 15:31:45;;;;;;;;;;;;;;;13.36;54.00;99578.25;4953830;29;820;-72
2023/02/22 15:34:14;;;;;;;;;;;;;;;13.00;54.95;99582.44;4953687;29;951;-72
2023/02/22 15:36:42;;;;;;;;;;;;;;;12.80;56.31;99585.19;4953733;29;887;-72
2023/02/22 15:39:28;;;;;;;;;;;;;;;12.56;57.05;99581.63;4953587;29;887;-71
2023/02/22 15:42:06;;;;;;;;;;;;;;;12.41;57.50;99586.59;4936264;28;1951;-72
2023/02/22 15:44:39;;;;;;;;;;;;;;;12.30;57.78;99594.31;4953576;29;851;-72
2023/02/22 15:47:05;;;;;;;;;;;;;;;12.13;58.29;99595.38;4953576;29;882;-72
2023/02/22 15:49:34;;;;;;;;;;;;;;;11.91;58.92;99600.44;4936545;29;1413;-72
2023/02/22 15:52:02;;;;;;;;;;;;;;;11.67;59.35;99605.03;4953678;29;884;-71
2023/02/22 15:54:36;;;;;;;;;;;;;;;11.43;59.88;99604.94;4953478;29;835;-71
2023/02/22 15:57:03;;;;;;;;;;;;;;;11.20;60.41;99611.91;4953483;29;804;-71
2023/02/22 15:59:32;;;;;;;;;;;;;;;10.95;61.41;99614.16;4953418;29;1041;-71
2023/02/22 16:01:59;;;;;;;;;;;;;;;10.71;64.66;99618.69;4936356;29;1907;-71
2023/02/22 16:04:28;;;;;;;;;;;;;;;10.48;67.42;99636.66;4953490;29;866;-72
2023/02/22 16:07:02;;;;;;;;;;;;;;;10.45;67.47;99636.66;4936189;29;840;-72
2023/02/22 16:09:31;;;;;;;;;;;;;;;10.30;67.89;99636.75;4936157;29;1241;-72
2023/02/22 16:12:09;;;;;;;;;;;;;;;10.12;68.57;99641.59;4953778;29;843;-71
2023/02/22 16:14:35;;;;;;;;;;;;;;;9.98;69.44;99648.72;4953249;29;812;-72
2023/02/22 16:17:23;;;;;;;;;;;;;;;9.85;69.93;99650.38;4936023;29;1182;-72
2023/02/22 16:19:50;;;;;;;;;;;;;;;9.70;72.34;99659.91;4953288;29;839;-72
2023/02/22 16:22:33;;;;;;;;;;;;;;;9.56;75.47;99675.34;4953157;29;1886;-72
2023/02/22 16:25:16;;;;;;;;;;;;;;;9.49;77.16;99680.06;4953510;29;741;-72
2023/02/22 16:27:46;;;;;;;;;;;;;;;9.42;79.87;99689.16;4953269;29;800;-72
2023/02/22 16:30:19;;;;;;;;;;;;;;;9.33;81.45;99697.84;4953201;29;879;-74
2023/02/22 16:32:46;;;;;;;;;;;;;;;9.22;83.10;99702.59;4953004;29;882;-72
2023/02/22 16:35:16;;;;;;;;;;;;;;;9.14;83.50;99704.56;4953319;29;812;-73
2023/02/22 16:37:56;;;;;;;;;;;;;;;9.07;85.19;99721.13;4935880;29;1218;-72
2023/02/22 16:40:24;;;;;;;;;;;;;;;8.88;86.29;99725.03;4953230;29;867;-72
2023/02/22 16:42:50;;;;;;;;;;;;;;;8.70;87.04;99729.75;4952896;28;1977;-72
2023/02/22 16:45:18;;;;;;;;;;;;;;;8.47;88.89;99730.09;4953051;29;843;-73
2023/02/22 16:47:45;;;;;;;;;;;;;;;8.30;89.70;99735.13;4953003;29;910;-73
2023/02/22 16:50:11;;;;;;;;;;;;;;;8.16;91.94;99748.84;4953014;29;777;-72
2023/02/22 16:52:40;;;;;;;;;;;;;;;8.00;92.78;99749.19;4953248;29;803;-72
2023/02/22 16:55:12;;;;;;;;;;;;;;;7.80;93.35;99740.41;4952950;29;902;-72
2023/02/22 16:57:39;;;;;;;;;;;;;;;7.73;97.00;99748.66;4953189;29;800;-73
2023/02/22 17:00:12;;;;;;;;;;;;;;;7.72;95.85;99756.13;4952918;29;867;-73
2023/02/22 17:02:38;;;;;;;;;;;;;;;7.67;95.90;99748.22;4935431;29;1906;-73
2023/02/22 17:05:06;;;;;;;;;;;;;;;7.63;95.60;99760.38;4953912;28;886;-73
2023/02/22 17:07:33;;;;;;;;;;;;;;;7.54;95.76;99763.47;4956369;29;1149;-72
2023/02/22 17:09:59;;;;;;;;;;;;;;;7.44;95.96;99766.91;4956167;29;875;-72
2023/02/22 17:24:38;;;;;;;;;;;;;;;6.58;98.83;99790.88;4956234;29;610;-71
2023/02/22 17:27:04;;;;;;;;;;;;;;;6.48;99.63;99787.63;4956003;29;911;-72
2023/02/22 17:29:30;;;;;;;;;;;;;;;6.53;100.00;99794.75;4955869;29;895;-72
2023/02/22 17:31:57;;;;;;;;;;;;;;;6.57;98.97;99803.81;4955724;29;862;-73
2023/02/22 17:34:24;;;;;;;;;;;;;;;6.64;97.08;99803.91;4956026;29;835;-73
2023/02/22 17:36:50;;;;;;;;;;;;;;;6.66;92.20;99798.81;4955998;29;835;-72
2023/02/22 17:39:17;;;;;;;;;;;;;;;6.92;84.18;99800.66;4956049;29;741;-72
2023/02/22 17:41:43;;;;;;;;;;;;;;;7.04;79.64;99805.09;4938196;28;1895;-72
2023/02/22 17:44:10;;;;;;;;;;;;;;;7.05;76.95;99812.16;4955670;29;807;-72
2023/02/22 17:46:39;;;;;;;;;;;;;;;6.96;75.75;99803.44;4955713;29;946;-72
2023/02/22 17:49:06;;;;;;;;;;;;;;;6.86;75.37;99799.41;4955558;29;909;-72
2023/02/22 17:51:33;;;;;;;;;;;;;;;6.71;75.44;99797.69;4938236;29;1281;-73
2023/02/22 17:53:59;;;;;;;;;;;;;;;6.69;74.48;99802.78;4955440;29;865;-72
2023/02/22 17:56:26;;;;;;;;;;;;;;;6.70;73.23;99804.34;4955381;29;804;-73
2023/02/22 17:58:54;;;;;;;;;;;;;;;6.66;72.83;99801.56;4955315;29;835;-73
2023/02/22 18:01:23;;;;;;;;;;;;;;;6.63;72.94;99794.06;4955191;29;1911;-72
2023/02/22 18:03:50;;;;;;;;;;;;;;;6.66;71.70;99800.78;4955341;29;804;-72
2023/02/22 18:06:19;;;;;;;;;;;;;;;6.77;70.63;99789.91;4937957;29;1189;-72
2023/02/22 18:08:51;;;;;;;;;;;;;;;6.77;69.97;99795.41;4955177;29;823;-72
2023/02/22 18:11:19;;;;;;;;;;;;;;;6.85;69.39;99797.84;4955428;29;717;-72
2023/02/22 18:13:46;;;;;;;;;;;;;;;6.86;68.42;99798.63;4955679;29;833;-72
2023/02/22 18:16:14;;;;;;;;;;;;;;;6.82;69.09;99800.53;4954975;28;1177;-72
2023/02/22 18:18:42;;;;;;;;;;;;;;;6.76;69.02;99794.59;4955418;29;807;-73
2023/02/22 18:21:08;;;;;;;;;;;;;;;6.79;68.95;99801.31;4937688;29;1886;-72
2023/02/22 18:23:34;;;;;;;;;;;;;;;6.73;68.96;99789.88;4955196;29;823;-73
2023/02/22 18:26:02;;;;;;;;;;;;;;;6.72;68.90;99782.78;4955006;29;879;-72
2023/02/22 18:28:30;;;;;;;;;;;;;;;6.75;69.13;99793.03;4955178;29;1001;-73
2023/02/22 18:43:08;;;;;;;;;;;;;;;6.74;68.89;99803.22;4962509;28;1952;-73
2023/02/22 18:45:35;;;;;;;;;;;;;;;6.81;68.84;99809.97;4954575;29;828;-73
2023/02/22 18:48:01;;;;;;;;;;;;;;;6.79;68.57;99801.31;4954487;29;812;-72
2023/02/22 18:50:27;;;;;;;;;;;;;;;6.70;69.23;99802.41;4954411;29;795;-72
2023/02/22 18:52:54;;;;;;;;;;;;;;;6.62;69.71;99803.47;4937139;29;1279;-72
2023/02/22 18:55:21;;;;;;;;;;;;;;;6.59;69.94;99797.94;4954346;29;812;-73
2023/02/22 18:57:49;;;;;;;;;;;;;;;6.50;70.33;99801.78;4937086;29;1400;-73
2023/02/22 19:00:18;;;;;;;;;;;;;;;6.28;71.83;99797.19;4954248;29;773;-73
2023/02/22 19:02:43;;;;;;;;;;;;;;;6.30;72.53;99801.16;4954093;29;1914;-72
2023/02/22 19:05:11;;;;;;;;;;;;;;;6.29;72.39;99802.31;4954218;29;844;-73
2023/02/22 19:07:38;;;;;;;;;;;;;;;6.18;72.70;99817.06;4954243;29;853;-73
2023/02/22 19:10:05;;;;;;;;;;;;;;;6.19;73.49;99810.41;4954199;29;863;-74
2023/02/22 19:12:32;;;;;;;;;;;;;;;6.23;73.10;99813.97;4954045;29;858;-73
2023/02/22 19:14:59;;;;;;;;;;;;;;;6.29;73.08;99810.56;4953991;29;796;-72
2023/02/22 19:17:27;;;;;;;;;;;;;;;6.51;72.22;99810.81;4954126;29;863;-73
2023/02/22 19:19:54;;;;;;;;;;;;;;;6.84;70.08;99820.19;4954074;29;816;-73
2023/02/22 19:22:20;;;;;;;;;;;;;;;6.99;69.30;99816.41;4953810;29;1882;-72
2023/02/22 19:24:46;;;;;;;;;;;;;;;7.05;68.99;99820.41;4953955;29;870;-74
2023/02/22 19:27:13;;;;;;;;;;;;;;;7.08;68.68;99829.84;4953494;28;914;-73
2023/02/22 19:29:39;;;;;;;;;;;;;;;7.07;68.26;99822.78;4953651;29;828;-75
2023/02/22 19:32:07;;;;;;;;;;;;;;;7.05;67.69;99830.63;4953809;29;962;-75
2023/02/22 19:34:35;;;;;;;;;;;;;;;6.91;68.93;99825.75;4954055;29;823;-72
2023/02/22 19:37:03;;;;;;;;;;;;;;;6.84;68.56;99828.44;4953747;29;866;-73
2023/02/22 19:39:31;;;;;;;;;;;;;;;6.80;69.23;99830.34;4936792;29;1190;-73
2023/02/22 19:41:57;;;;;;;;;;;;;;;6.80;69.21;99838.59;4953943;28;1890;-72
2023/02/22 19:44:24;;;;;;;;;;;;;;;6.85;68.53;99830.81;4936387;28;1444;-72
2023/02/22 19:46:54;;;;;;;;;;;;;;;6.75;69.04;99837.75;4953568;29;876;-74
2023/02/22 19:49:21;;;;;;;;;;;;;;;6.68;68.99;99831.41;4936581;29;1084;-72
2023/02/22 19:51:47;;;;;;;;;;;;;;;6.64;69.25;99831.38;4953882;29;879;-72
2023/02/22 19:54:18;;;;;;;;;;;;;;;6.45;69.61;99826.81;4953703;29;869;-72
2023/02/22 19:56:49;;;;;;;;;;;;;;;6.35;70.57;99832.97;4953639;29;776;-72
2023/02/22 19:59:20;;;;;;;;;;;;;;;6.45;70.59;99837.03;4953355;29;784;-73
2023/02/22 20:01:47;;;;;;;;;;;;;;;6.39;71.03;99835.78;4953535;29;1910;-73
2023/02/22 20:04:20;;;;;;;;;;;;;;;6.38;71.67;99831.44;4953413;29;887;-72
2023/02/22 20:06:47;;;;;;;;;;;;;;;6.28;72.34;99835.63;4953493;29;874;-72
2023/02/22 20:09:16;;;;;;;;;;;;;;;6.25;72.93;99830.88;4953404;29;835;-72
2023/02/22 20:11:44;;;;;;;;;;;;;;;6.34;72.85;99832.19;4953562;29;867;-72
2023/02/22 20:14:16;;;;;;;;;;;;;;;6.36;72.65;99844.72;4953773;29;800;-73
2023/02/22 20:16:43;;;;;;;;;;;;;;;6.34;72.41;99839.63;4936188;29;1218;-73
2023/02/22 20:19:09;;;;;;;;;;;;;;;6.20;72.32;99837.47;4953371;29;824;-73
2023/02/22 20:21:36;;;;;;;;;;;;;;;6.10;73.08;99836.19;4953206;29;1939;-75
2023/02/22 20:24:05;;;;;;;;;;;;;;;6.09;73.38;99837.34;4953275;29;792;-74
2023/02/22 20:26:33;;;;;;;;;;;;;;;6.04;73.68;99839.59;4936111;29;1174;-74
2023/02/22 20:29:02;;;;;;;;;;;;;;;5.97;74.52;99839.50;4953099;29;891;-73
2023/02/22 20:31:30;;;;;;;;;;;;;;;6.04;74.58;99840.41;4953289;29;839;-72
2023/02/22 20:33:58;;;;;;;;;;;;;;;6.10;74.17;99838.94;4953224;29;788;-73
2023/02/22 20:36:25;;;;;;;;;;;;;;;6.13;73.92;99843.66;4953120;29;836;-73
2023/02/22 20:38:55;;;;;;;;;;;;;;;6.21;73.92;99838.25;4953181;28;820;-73
2023/02/22 20:41:25;;;;;;;;;;;;;;;6.20;73.39;99837.47;4956446;29;1892;-73
2023/02/22 20:43:52;;;;;;;;;;;;;;;6.29;73.10;99837.19;4956665;28;1423;-72
2023/02/22 20:46:20;;;;;;;;;;;;;;;6.17;73.65;99835.50;4956727;29;828;-72
2023/02/22 20:48:46;;;;;;;;;;;;;;;6.14;74.31;99838.97;4956665;29;919;-72
2023/02/22 20:51:14;;;;;;;;;;;;;;;6.20;74.18;99840.22;4956595;29;891;-75
2023/02/22 20:53:40;;;;;;;;;;;;;;;6.18;74.17;99830.78;4956689;29;835;-73
2023/02/22 20:56:27;;;;;;;;;;;;;;;6.08;74.63;99833.03;4956475;29;804;-74
2023/02/22 20:58:58;;;;;;;;;;;;;;;5.97;75.55;99829.31;4956155;29;1682;-73
2023/02/22 21:01:25;;;;;;;;;;;;;;;5.92;76.42;99833.16;4956791;29;1918;-73
2023/02/22 21:03:51;;;;;;;;;;;;;;;5.81;76.85;99832.22;4956347;29;1219;-73
2023/02/22 21:06:20;;;;;;;;;;;;;;;5.77;78.00;99831.38;4939154;29;1346;-73
2023/02/22 21:08:52;;;;;;;;;;;;;;;5.79;77.95;99831.78;4956509;29;812;-72
2023/02/22 21:11:19;;;;;;;;;;;;;;;5.75;78.03;99817.22;4956344;29;915;-72
2023/02/22 21:14:55;;;;;;;;;;;;;;;5.86;78.24;99818.16;5059899;27;3109407;-73
2023/02/22 21:17:27;;;;;;;;;;;;;;;5.96;78.04;99821.47;5171473;27;849;-75
2023/02/22 21:19:55;;;;;;;;;;;;;;;6.09;77.59;99828.31;5171496;27;841;-75
2023/02/22 21:22:23;;;;;;;;;;;;;;;6.24;77.20;99819.09;5171417;27;875;-73
2023/02/22 21:24:50;;;;;;;;;;;;;;;6.44;75.69;99833.47;5171243;27;929;-75
2023/02/22 21:27:17;;;;;;;;;;;;;;;6.64;74.55;99827.84;5152491;27;1399;-75
2023/02/22 21:29:43;;;;;;;;;;;;;;;6.73;74.41;99822.81;5152577;27;866;-74
2023/02/22 21:32:11;;;;;;;;;;;;;;;6.76;74.10;99830.31;5171218;27;969;-74
2023/02/22 21:34:38;;;;;;;;;;;;;;;6.81;74.16;99823.69;5171064;27;1909;-74
2023/02/22 21:37:07;;;;;;;;;;;;;;;6.86;74.05;99817.84;5171019;27;864;-73
2023/02/22 21:39:34;;;;;;;;;;;;;;;6.93;74.16;99820.66;5171327;27;907;-72
2023/02/22 21:42:00;;;;;;;;;;;;;;;7.03;73.44;99816.47;5171549;27;833;-73
2023/02/22 21:44:27;;;;;;;;;;;;;;;7.05;73.31;99816.88;5170886;27;1034;-72
2023/02/22 21:46:54;;;;;;;;;;;;;;;7.05;73.17;99814.13;5170874;27;837;-73
2023/02/22 21:49:21;;;;;;;;;;;;;;;7.01;73.19;99816.81;5170831;27;861;-72
2023/02/22 21:51:50;;;;;;;;;;;;;;;7.08;73.23;99824.34;5170877;27;908;-72
2023/02/22 21:54:16;;;;;;;;;;;;;;;7.13;73.06;99826.78;5152436;27;2160;-72
2023/02/22 21:56:42;;;;;;;;;;;;;;;7.18;72.60;99828.38;5171078;27;806;-73
2023/02/22 21:59:12;;;;;;;;;;;;;;;7.23;72.80;99822.53;5170528;27;860;-75
2023/02/22 22:01:46;;;;;;;;;;;;;;;7.25;72.26;99818.22;5170797;27;864;-74
2023/02/22 22:04:17;;;;;;;;;;;;;;;7.30;71.87;99817.09;5170594;27;826;-72
2023/02/22 22:06:45;;;;;;;;;;;;;;;7.25;72.02;99820.19;5170570;27;829;-73
2023/02/22 22:09:17;;;;;;;;;;;;;;;7.25;72.03;99818.22;5151836;27;1333;-73
2023/02/22 22:11:48;;;;;;;;;;;;;;;7.28;72.42;99816.69;5170342;27;852;-73
2023/02/22 22:14:17;;;;;;;;;;;;;;;7.26;72.38;99808.81;5170043;27;1949;-72
2023/02/22 22:16:47;;;;;;;;;;;;;;;7.29;71.99;99824.53;5170376;27;814;-73
2023/02/22 22:19:14;;;;;;;;;;;;;;;7.27;71.79;99823.34;5170310;27;813;-73
2023/02/22 22:21:41;;;;;;;;;;;;;;;7.24;71.96;99821.38;5170363;27;888;-74
2023/02/22 22:24:09;;;;;;;;;;;;;;;7.14;73.06;99820.88;5169418;27;872;-73
2023/02/22 22:26:36;;;;;;;;;;;;;;;7.05;73.50;99823.16;5137556;27;1146;-75
2023/02/22 22:29:04;;;;;;;;;;;;;;;7.03;73.95;99828.22;5156139;27;809;-72
2023/02/22 22:31:30;;;;;;;;;;;;;;;7.02;74.35;99825.84;5137692;27;1417;-73
2023/02/22 22:33:57;;;;;;;;;;;;;;;7.01;74.70;99827.03;5137742;27;1901;-73
2023/02/22 22:36:25;;;;;;;;;;;;;;;6.94;74.76;99830.50;5156162;27;861;-72
2023/02/22 22:38:56;;;;;;;;;;;;;;;6.89;75.40;99833.56;5156060;27;854;-73
2023/02/22 22:41:22;;;;;;;;;;;;;;;6.92;75.98;99830.88;5155975;27;833;-72
2023/02/22 22:43:51;;;;;;;;;;;;;;;6.93;76.46;99831.66;5155880;27;825;-72
2023/02/22 22:46:17;;;;;;;;;;;;;;;6.92;76.59;99824.59;5155925;27;829;-74
2023/02/22 22:48:45;;;;;;;;;;;;;;;6.97;76.50;99826.22;5155768;27;830;-75
2023/02/22 22:51:13;;;;;;;;;;;;;;;6.99;76.93;99830.16;5155799;27;821;-74
2023/02/22 22:53:41;;;;;;;;;;;;;;;7.02;77.25;99829.41;5155717;27;1881;-73
2023/02/22 22:56:16;;;;;;;;;;;;;;;7.03;77.27;99830.19;5155671;27;1404;-73
2023/02/22 22:58:46;;;;;;;;;;;;;;;7.01;77.66;99829.78;5156046;27;881;-76
2023/02/22 23:01:16;;;;;;;;;;;;;;;7.03;77.95;99825.47;5155650;27;830;-74
2023/02/22 23:03:53;;;;;;;;;;;;;;;7.02;77.37;99826.66;5155603;27;766;-73
2023/02/22 23:06:23;;;;;;;;;;;;;;;7.01;77.40;99827.03;5155629;27;837;-72
2023/02/22 23:09:13;;;;;;;;;;;;;;;6.93;78.20;99835.22;5155632;27;841;-73
2023/02/22 23:11:44;;;;;;;;;;;;;;;6.84;78.78;99834.72;5142765;27;1095;-73
2023/02/22 23:14:12;;;;;;;;;;;;;;;6.82;79.94;99826.06;5154905;27;1996;-75
2023/02/22 23:16:39;;;;;;;;;;;;;;;6.81;80.09;99821.75;5155468;27;837;-74
2023/02/22 23:19:08;;;;;;;;;;;;;;;6.79;80.67;99824.06;5136820;27;1240;-73
2023/02/22 23:21:36;;;;;;;;;;;;;;;6.82;80.87;99822.53;5155325;27;935;-74
2023/02/22 23:24:05;;;;;;;;;;;;;;;6.88;80.86;99832.78;5155358;27;848;-73
2023/02/22 23:26:32;;;;;;;;;;;;;;;6.86;80.97;99823.34;5154958;27;837;-73
2023/02/22 23:28:58;;;;;;;;;;;;;;;6.89;81.12;99819.84;5155066;27;861;-72
2023/02/22 23:31:28;;;;;;;;;;;;;;;6.90;81.14;99821.44;5155039;27;794;-73
2023/02/22 23:33:57;;;;;;;;;;;;;;;6.83;81.50;99824.91;5136667;27;1905;-73
2023/02/22 23:36:25;;;;;;;;;;;;;;;6.82;82.00;99819.78;5153986;27;786;-73
2023/02/22 23:38:51;;;;;;;;;;;;;;;6.80;81.90;99819.38;5154912;27;836;-73
2023/02/22 23:41:18;;;;;;;;;;;;;;;6.79;82.57;99829.56;5154746;27;820;-75
2023/02/22 23:43:45;;;;;;;;;;;;;;;6.79;83.70;99826.03;5155095;27;810;-74
2023/02/22 23:46:12;;;;;;;;;;;;;;;6.86;83.63;99817.84;5154613;27;791;-73
2023/02/22 23:48:46;;;;;;;;;;;;;;;6.92;83.62;99821.84;5154774;27;825;-72
2023/02/22 23:51:14;;;;;;;;;;;;;;;6.88;83.48;99821.81;5154821;27;797;-74
2023/02/22 23:53:44;;;;;;;;;;;;;;;6.87;84.50;99819.44;5154452;27;1886;-73
2023/02/22 23:56:13;;;;;;;;;;;;;;;6.89;84.99;99823.41;5154402;27;888;-73
2023/02/22 23:58:41;;;;;;;;;;;;;;;6.93;85.91;99821.47;5135819;27;1082;-72
